createdAt,value
2023-02-28T00:03:21.382Z,21.88
2023-02-28T00:04:21.313Z,21.88
2023-02-28T00:05:21.267Z,21.89
2023-02-28T00:06:21.219Z,21.89
2023-02-28T00:07:21.174Z,21.88
2023-02-28T00:08:21.148Z,21.88
2023-02-28T00:09:21.103Z,21.88
2023-02-28T00:10:21.055Z,21.88
2023-02-28T00:11:21.023Z,21.88
2023-02-28T00:12:20.960Z,21.88
2023-02-28T00:13:20.931Z,21.87
2023-02-28T00:14:20.886Z,21.88
2023-02-28T00:15:20.869Z,21.87
2023-02-28T00:16:20.862Z,21.88
2023-02-28T00:17:20.778Z,21.87
2023-02-28T00:18:20.744Z,21.88
2023-02-28T00:19:20.696Z,21.87
2023-02-28T00:20:20.669Z,21.88
2023-02-28T00:21:20.674Z,21.87
2023-02-28T00:22:20.609Z,21.88
2023-02-28T00:23:20.555Z,21.88
2023-02-28T00:24:20.537Z,21.88
2023-02-28T00:25:20.513Z,21.88
2023-02-28T00:26:21.904Z,21.88
2023-02-28T00:27:20.461Z,21.89
2023-02-28T00:28:20.385Z,21.88
2023-02-28T00:29:20.333Z,21.88
2023-02-28T00:30:20.296Z,21.88
2023-02-28T00:31:20.256Z,21.89
2023-02-28T00:32:20.307Z,21.88
2023-02-28T00:33:20.208Z,21.88
2023-02-28T00:34:20.162Z,21.87
2023-02-28T00:35:20.133Z,21.87
2023-02-28T00:36:20.089Z,21.89
2023-02-28T00:37:20.041Z,21.88
2023-02-28T00:38:19.999Z,21.88
2023-02-28T00:39:19.976Z,21.88
2023-02-28T00:40:20.011Z,21.88
2023-02-28T00:41:19.895Z,21.88
2023-02-28T00:42:19.866Z,21.87
2023-02-28T00:43:19.826Z,21.88
2023-02-28T00:44:19.789Z,21.88
2023-02-28T00:45:19.756Z,21.88
2023-02-28T00:46:19.808Z,21.88
2023-02-28T00:47:19.661Z,21.89
2023-02-28T00:48:19.629Z,21.88
2023-02-28T00:49:19.592Z,21.89
2023-02-28T00:50:19.540Z,21.88
2023-02-28T00:51:19.508Z,21.88
2023-02-28T00:52:19.472Z,21.88
2023-02-28T00:53:19.429Z,21.87
2023-02-28T00:54:19.368Z,21.88
2023-02-28T00:55:19.325Z,21.88
2023-02-28T00:56:19.328Z,21.88
2023-02-28T00:57:19.250Z,21.87
2023-02-28T00:58:19.204Z,21.88
2023-02-28T00:59:19.156Z,21.89
2023-02-28T01:00:19.118Z,21.88
2023-02-28T01:01:19.117Z,21.89
2023-02-28T01:02:19.041Z,21.88
2023-02-28T01:03:19.020Z,21.88
2023-02-28T01:04:18.986Z,21.88
2023-02-28T01:05:18.911Z,21.88
2023-02-28T01:06:18.879Z,21.88
2023-02-28T01:07:18.836Z,21.88
2023-02-28T01:08:18.838Z,21.88
2023-02-28T01:09:18.770Z,21.87
2023-02-28T01:10:18.758Z,21.88
2023-02-28T01:11:18.702Z,21.88
2023-02-28T01:12:18.657Z,21.88
2023-02-28T01:13:18.637Z,21.88
2023-02-28T01:14:18.589Z,21.88
2023-02-28T01:15:18.558Z,21.87
2023-02-28T01:16:18.523Z,21.87
2023-02-28T01:17:18.477Z,21.87
2023-02-28T01:18:18.475Z,21.86
2023-02-28T01:19:18.411Z,21.87
2023-02-28T01:20:18.389Z,21.86
2023-02-28T01:21:18.341Z,21.86
2023-02-28T01:22:18.304Z,21.86
2023-02-28T01:23:18.289Z,21.86
2023-02-28T01:24:18.236Z,21.87
2023-02-28T01:25:18.226Z,21.87
2023-02-28T01:26:18.166Z,21.87
2023-02-28T01:27:18.126Z,21.87
2023-02-28T01:28:18.080Z,21.87
2023-02-28T01:29:18.040Z,21.87
2023-02-28T01:30:18.007Z,21.87
2023-02-28T01:31:17.969Z,21.87
2023-02-28T01:32:17.957Z,21.87
2023-02-28T01:33:17.855Z,21.87
2023-02-28T01:34:17.831Z,21.86
2023-02-28T01:35:17.792Z,21.87
2023-02-28T01:36:17.736Z,21.87
2023-02-28T01:37:17.705Z,21.87
2023-02-28T01:38:22.564Z,21.87
2023-02-28T01:39:18.615Z,21.87
2023-02-28T01:40:17.610Z,21.87
2023-02-28T01:41:17.533Z,21.87
2023-02-28T01:42:17.494Z,21.87
2023-02-28T01:43:17.461Z,21.86
2023-02-28T01:44:17.426Z,21.87
2023-02-28T01:45:17.393Z,21.86
2023-02-28T01:46:17.376Z,21.86
2023-02-28T01:47:17.308Z,21.86
2023-02-28T01:48:17.260Z,21.86
2023-02-28T01:49:17.229Z,21.86
2023-02-28T01:50:17.185Z,21.87
2023-02-28T01:51:17.136Z,21.87
2023-02-28T01:52:17.096Z,21.87
2023-02-28T01:53:17.076Z,21.87
2023-02-28T01:54:17.020Z,21.88
2023-02-28T01:55:16.989Z,21.87
2023-02-28T01:56:16.960Z,21.87
2023-02-28T01:57:16.937Z,21.87
2023-02-28T01:58:16.881Z,21.86
2023-02-28T01:59:16.840Z,21.87
2023-02-28T02:00:16.799Z,21.86
2023-02-28T02:01:16.872Z,21.87
2023-02-28T02:02:16.734Z,21.87
2023-02-28T02:03:17.443Z,21.87
2023-02-28T02:04:16.634Z,21.87
2023-02-28T02:05:16.602Z,21.86
2023-02-28T02:06:16.553Z,21.86
2023-02-28T02:07:16.516Z,21.86
2023-02-28T02:08:16.480Z,21.85
2023-02-28T02:09:16.438Z,21.86
2023-02-28T02:10:16.408Z,21.85
2023-02-28T02:11:16.357Z,21.86
2023-02-28T02:12:16.322Z,21.85
2023-02-28T02:13:16.293Z,21.86
2023-02-28T02:14:16.245Z,21.86
2023-02-28T02:15:16.181Z,21.86
2023-02-28T02:16:16.165Z,21.87
2023-02-28T02:17:16.121Z,21.86
2023-02-28T02:18:16.067Z,21.86
2023-02-28T02:19:16.046Z,21.86
2023-02-28T02:20:15.975Z,21.86
2023-02-28T02:21:15.942Z,21.87
2023-02-28T02:22:15.882Z,21.87
2023-02-28T02:23:15.859Z,21.87
2023-02-28T02:24:15.796Z,21.86
2023-02-28T02:25:15.768Z,21.87
2023-02-28T02:26:15.727Z,21.86
2023-02-28T02:27:15.684Z,21.87
2023-02-28T02:28:15.627Z,21.87
2023-02-28T02:29:15.596Z,21.87
2023-02-28T02:30:15.545Z,21.88
2023-02-28T02:31:15.550Z,21.87
2023-02-28T02:32:15.524Z,21.87
2023-02-28T02:33:15.429Z,21.86
2023-02-28T02:34:15.380Z,21.86
2023-02-28T02:35:15.348Z,21.87
2023-02-28T02:36:15.306Z,21.86
2023-02-28T02:37:15.257Z,21.87
2023-02-28T02:38:15.222Z,21.86
2023-02-28T02:39:15.169Z,21.87
2023-02-28T02:40:15.145Z,21.86
2023-02-28T02:41:15.098Z,21.86
2023-02-28T02:42:15.056Z,21.86
2023-02-28T02:43:15.030Z,21.87
2023-02-28T02:44:14.968Z,21.87
2023-02-28T02:45:14.936Z,21.86
2023-02-28T02:46:14.946Z,21.86
2023-02-28T02:47:14.910Z,21.86
2023-02-28T02:48:14.825Z,21.85
2023-02-28T02:49:14.803Z,21.85
2023-02-28T02:50:14.764Z,21.85
2023-02-28T02:51:14.711Z,21.85
2023-02-28T02:52:14.663Z,21.85
2023-02-28T02:53:14.629Z,21.85
2023-02-28T02:54:14.580Z,21.85
2023-02-28T02:55:14.543Z,21.85
2023-02-28T02:56:14.518Z,21.86
2023-02-28T02:57:14.493Z,21.87
2023-02-28T02:58:14.420Z,21.86
2023-02-28T02:59:14.367Z,21.86
2023-02-28T03:00:14.338Z,21.86
2023-02-28T03:01:14.333Z,21.86
2023-02-28T03:02:14.260Z,21.86
2023-02-28T03:03:14.217Z,21.85
2023-02-28T03:04:14.184Z,21.86
2023-02-28T03:05:14.182Z,21.86
2023-02-28T03:06:14.108Z,21.85
2023-02-28T03:07:14.072Z,21.85
2023-02-28T03:08:14.019Z,21.85
2023-02-28T03:09:13.993Z,21.85
2023-02-28T03:10:13.933Z,21.85
2023-02-28T03:11:13.880Z,21.84
2023-02-28T03:12:13.860Z,21.84
2023-02-28T03:13:13.812Z,21.85
2023-02-28T03:14:13.754Z,21.85
2023-02-28T03:15:13.712Z,21.85
2023-02-28T03:16:13.716Z,21.86
2023-02-28T03:17:13.644Z,21.85
2023-02-28T03:18:13.616Z,21.85
2023-02-28T03:19:13.564Z,21.85
2023-02-28T03:20:13.532Z,21.85
2023-02-28T03:21:13.490Z,21.84
2023-02-28T03:22:13.448Z,21.84
2023-02-28T03:23:13.437Z,21.84
2023-02-28T03:24:13.370Z,21.85
2023-02-28T03:25:13.335Z,21.85
2023-02-28T03:26:13.309Z,21.84
2023-02-28T03:27:13.263Z,21.84
2023-02-28T03:28:13.229Z,21.84
2023-02-28T03:29:13.184Z,21.83
2023-02-28T03:30:13.156Z,21.83
2023-02-28T03:31:13.224Z,21.84
2023-02-28T03:32:13.295Z,21.84
2023-02-28T03:33:13.055Z,21.84
2023-02-28T03:34:13.013Z,21.84
2023-02-28T03:35:12.973Z,21.84
2023-02-28T03:36:12.931Z,21.84
2023-02-28T03:37:12.972Z,21.84
2023-02-28T03:38:12.864Z,21.85
2023-02-28T03:39:12.823Z,21.84
2023-02-28T03:40:12.797Z,21.84
2023-02-28T03:41:12.768Z,21.84
2023-02-28T03:42:12.735Z,21.83
2023-02-28T03:43:12.677Z,21.83
2023-02-28T03:44:12.646Z,21.83
2023-02-28T03:45:12.601Z,21.84
2023-02-28T03:46:12.614Z,21.84
2023-02-28T03:47:12.527Z,21.84
2023-02-28T03:48:12.503Z,21.84
2023-02-28T03:49:12.460Z,21.83
2023-02-28T03:50:12.411Z,21.83
2023-02-28T03:51:12.375Z,21.83
2023-02-28T03:52:12.341Z,21.83
2023-02-28T03:53:12.311Z,21.83
2023-02-28T03:54:12.262Z,21.83
2023-02-28T03:55:12.231Z,21.83
2023-02-28T03:56:12.178Z,21.83
2023-02-28T03:57:12.140Z,21.83
2023-02-28T03:58:12.109Z,21.83
2023-02-28T03:59:12.077Z,21.83
2023-02-28T04:00:12.045Z,21.84
2023-02-28T04:01:12.015Z,21.83
2023-02-28T04:02:12.007Z,21.83
2023-02-28T04:03:11.932Z,21.83
2023-02-28T04:04:11.932Z,21.83
2023-02-28T04:05:11.860Z,21.82
2023-02-28T04:06:11.815Z,21.82
2023-02-28T04:07:11.768Z,21.83
2023-02-28T04:08:11.724Z,21.82
2023-02-28T04:10:19.756Z,21.79
2023-02-28T04:11:19.724Z,21.80
2023-02-28T04:12:19.712Z,21.80
2023-02-28T04:13:19.679Z,21.79
2023-02-28T04:14:19.672Z,21.80
2023-02-28T04:15:19.642Z,21.81
2023-02-28T04:16:34.024Z,21.81
2023-02-28T04:17:20.608Z,21.82
2023-02-28T04:18:19.587Z,21.82
2023-02-28T04:19:19.575Z,21.82
2023-02-28T04:20:19.539Z,21.82
2023-02-28T04:21:19.523Z,21.82
2023-02-28T04:22:19.491Z,21.83
2023-02-28T04:23:19.472Z,21.82
2023-02-28T04:24:19.451Z,21.83
2023-02-28T04:25:19.443Z,21.84
2023-02-28T04:26:19.410Z,21.83
2023-02-28T04:27:19.387Z,21.83
2023-02-28T04:28:19.359Z,21.82
2023-02-28T04:29:19.360Z,21.83
2023-02-28T04:30:19.324Z,21.82
2023-02-28T04:31:19.342Z,21.82
2023-02-28T04:32:19.439Z,21.82
2023-02-28T04:33:19.263Z,21.82
2023-02-28T04:34:19.268Z,21.82
2023-02-28T04:35:19.228Z,21.82
2023-02-28T04:36:19.199Z,21.82
2023-02-28T04:37:19.205Z,21.82
2023-02-28T04:38:19.173Z,21.82
2023-02-28T04:39:19.161Z,21.81
2023-02-28T04:40:19.142Z,21.81
2023-02-28T04:41:19.108Z,21.82
2023-02-28T04:42:19.091Z,21.82
2023-02-28T04:43:19.067Z,21.82
2023-02-28T04:44:19.041Z,21.82
2023-02-28T04:45:19.050Z,21.81
2023-02-28T04:46:18.994Z,21.82
2023-02-28T04:47:18.965Z,21.82
2023-02-28T04:48:21.293Z,21.82
2023-02-28T04:49:18.929Z,21.82
2023-02-28T04:50:18.914Z,21.82
2023-02-28T04:51:18.878Z,21.82
2023-02-28T04:52:18.855Z,21.82
2023-02-28T04:53:18.831Z,21.82
2023-02-28T04:54:18.830Z,21.82
2023-02-28T04:55:18.792Z,21.82
2023-02-28T04:56:18.769Z,21.81
2023-02-28T04:57:18.738Z,21.81
2023-02-28T04:58:18.715Z,21.80
2023-02-28T04:59:18.706Z,21.81
2023-02-28T05:00:18.681Z,21.81
2023-02-28T05:01:18.648Z,21.81
2023-02-28T05:02:18.673Z,21.80
2023-02-28T05:03:18.609Z,21.80
2023-02-28T05:04:18.625Z,21.80
2023-02-28T05:05:18.581Z,21.81
2023-02-28T05:06:18.570Z,21.81
2023-02-28T05:07:18.526Z,21.80
2023-02-28T05:08:18.518Z,21.81
2023-02-28T05:09:18.498Z,21.81
2023-02-28T05:10:18.480Z,21.80
2023-02-28T05:11:18.459Z,21.81
2023-02-28T05:12:18.450Z,21.81
2023-02-28T05:13:18.419Z,21.81
2023-02-28T05:14:18.425Z,21.80
2023-02-28T05:15:18.386Z,21.81
2023-02-28T05:16:18.408Z,21.81
2023-02-28T05:17:18.360Z,21.81
2023-02-28T05:18:18.318Z,21.81
2023-02-28T05:19:18.299Z,21.81
2023-02-28T05:20:18.297Z,21.81
2023-02-28T05:21:18.250Z,21.81
2023-02-28T05:22:18.232Z,21.81
2023-02-28T05:23:18.215Z,21.82
2023-02-28T05:24:18.180Z,21.81
2023-02-28T05:25:18.170Z,21.82
2023-02-28T05:26:18.154Z,21.82
2023-02-28T05:27:18.121Z,21.82
2023-02-28T05:28:18.081Z,21.81
2023-02-28T05:29:18.054Z,21.82
2023-02-28T05:30:18.077Z,21.81
2023-02-28T05:31:18.081Z,21.82
2023-02-28T05:32:18.049Z,21.81
2023-02-28T05:33:17.986Z,21.81
2023-02-28T05:34:17.970Z,21.81
2023-02-28T05:35:17.956Z,21.81
2023-02-28T05:36:17.914Z,21.81
2023-02-28T05:37:17.901Z,21.81
2023-02-28T05:38:17.883Z,21.82
2023-02-28T05:39:17.855Z,21.82
2023-02-28T05:40:17.839Z,21.83
2023-02-28T05:41:17.800Z,21.82
2023-02-28T05:42:17.782Z,21.82
2023-02-28T05:43:17.756Z,21.82
2023-02-28T05:44:17.717Z,21.83
2023-02-28T05:45:17.687Z,21.82
2023-02-28T05:46:17.696Z,21.83
2023-02-28T05:47:17.632Z,21.82
2023-02-28T05:48:17.617Z,21.83
2023-02-28T05:49:17.618Z,21.83
2023-02-28T05:50:17.576Z,21.83
2023-02-28T05:51:17.549Z,21.82
2023-02-28T05:52:17.525Z,21.82
2023-02-28T05:53:17.497Z,21.82
2023-02-28T05:54:17.475Z,21.82
2023-02-28T05:55:17.456Z,21.82
2023-02-28T05:56:17.430Z,21.83
2023-02-28T05:57:24.316Z,21.83
2023-02-28T05:58:18.391Z,21.82
2023-02-28T05:59:17.376Z,21.84
2023-02-28T06:00:17.362Z,21.83
2023-02-28T06:01:17.341Z,21.83
2023-02-28T06:02:17.345Z,21.84
2023-02-28T06:03:17.310Z,21.84
2023-02-28T06:04:30.650Z,21.83
2023-02-28T06:05:18.258Z,21.83
2023-02-28T06:06:17.241Z,21.84
2023-02-28T06:07:17.205Z,21.83
2023-02-28T06:08:17.195Z,21.84
2023-02-28T06:09:17.161Z,21.83
2023-02-28T06:10:17.147Z,21.84
2023-02-28T06:11:17.109Z,21.85
2023-02-28T06:12:17.089Z,21.85
2023-02-28T06:13:17.097Z,21.86
2023-02-28T06:14:17.062Z,21.86
2023-02-28T06:15:17.043Z,21.86
2023-02-28T06:16:17.037Z,21.85
2023-02-28T06:17:16.991Z,21.85
2023-02-28T06:18:16.978Z,21.86
2023-02-28T06:19:16.944Z,21.86
2023-02-28T06:20:16.921Z,21.87
2023-02-28T06:21:16.890Z,21.87
2023-02-28T06:22:16.877Z,21.87
2023-02-28T06:23:16.842Z,21.88
2023-02-28T06:24:16.827Z,21.87
2023-02-28T06:25:16.813Z,21.87
2023-02-28T06:26:16.791Z,21.87
2023-02-28T06:27:16.760Z,21.87
2023-02-28T06:28:16.736Z,21.87
2023-02-28T06:29:16.782Z,21.88
2023-02-28T06:30:16.694Z,21.88
2023-02-28T06:31:16.683Z,21.88
2023-02-28T06:32:16.761Z,21.88
2023-02-28T06:33:16.627Z,21.89
2023-02-28T06:34:16.601Z,21.88
2023-02-28T06:35:16.587Z,21.89
2023-02-28T06:36:16.583Z,21.88
2023-02-28T06:37:16.538Z,21.89
2023-02-28T06:38:16.517Z,21.92
2023-02-28T06:39:16.498Z,21.96
2023-02-28T06:40:16.503Z,21.99
2023-02-28T06:41:16.991Z,22.02
2023-02-28T06:42:16.435Z,22.06
2023-02-28T06:43:16.406Z,22.06
2023-02-28T06:44:16.390Z,22.07
2023-02-28T06:45:16.349Z,22.07
2023-02-28T06:46:16.359Z,22.08
2023-02-28T06:47:16.314Z,22.09
2023-02-28T06:48:16.295Z,22.10
2023-02-28T06:49:16.295Z,22.07
2023-02-28T06:50:16.385Z,22.08
2023-02-28T06:51:16.230Z,22.08
2023-02-28T06:52:16.197Z,22.08
2023-02-28T06:53:16.271Z,22.08
2023-02-28T06:54:16.210Z,22.07
2023-02-28T06:55:16.138Z,22.03
2023-02-28T06:56:16.132Z,21.92
2023-02-28T06:57:16.109Z,21.90
2023-02-28T06:58:16.073Z,21.83
2023-02-28T06:59:16.075Z,21.75
2023-02-28T07:00:16.073Z,21.69
2023-02-28T07:01:16.062Z,21.65
2023-02-28T07:02:16.005Z,21.61
2023-02-28T07:03:15.978Z,21.58
2023-02-28T07:04:16.036Z,21.55
2023-02-28T07:05:15.948Z,21.54
2023-02-28T07:06:15.917Z,21.51
2023-02-28T07:07:15.901Z,21.50
2023-02-28T07:08:15.944Z,21.51
2023-02-28T07:09:15.868Z,21.54
2023-02-28T07:10:15.860Z,21.57
2023-02-28T07:11:15.826Z,21.61
2023-02-28T07:12:15.811Z,21.65
2023-02-28T07:13:15.779Z,21.70
2023-02-28T07:14:15.751Z,21.73
2023-02-28T07:15:15.747Z,21.76
2023-02-28T07:16:15.722Z,21.79
2023-02-28T07:17:15.686Z,21.81
2023-02-28T07:18:15.667Z,21.85
2023-02-28T07:19:15.645Z,21.88
2023-02-28T07:20:15.614Z,21.90
2023-02-28T07:21:15.613Z,21.92
2023-02-28T07:22:16.064Z,21.95
2023-02-28T07:23:15.589Z,21.96
2023-02-28T07:24:15.525Z,21.98
2023-02-28T07:25:15.487Z,22.00
2023-02-28T07:26:15.505Z,22.02
2023-02-28T07:27:15.428Z,22.05
2023-02-28T07:28:15.413Z,22.07
2023-02-28T07:29:15.373Z,22.08
2023-02-28T07:30:15.350Z,22.09
2023-02-28T07:31:15.400Z,22.11
2023-02-28T07:32:15.312Z,22.13
2023-02-28T07:33:15.261Z,22.15
2023-02-28T07:34:15.222Z,22.17
2023-02-28T07:35:15.189Z,22.18
2023-02-28T07:36:15.161Z,22.20
2023-02-28T07:37:15.138Z,22.22
2023-02-28T07:38:15.102Z,22.24
2023-02-28T07:39:15.077Z,22.25
2023-02-28T07:40:15.066Z,22.27
2023-02-28T07:41:15.010Z,22.27
2023-02-28T07:42:14.979Z,22.30
2023-02-28T07:43:14.937Z,22.32
2023-02-28T07:44:14.920Z,22.35
2023-02-28T07:45:15.489Z,22.37
2023-02-28T07:46:14.864Z,22.41
2023-02-28T07:47:14.857Z,22.40
2023-02-28T07:48:14.814Z,22.40
2023-02-28T07:49:14.884Z,22.41
2023-02-28T07:50:14.765Z,22.41
2023-02-28T07:51:14.706Z,22.41
2023-02-28T07:52:14.690Z,22.41
2023-02-28T07:53:14.630Z,22.42
2023-02-28T07:54:14.597Z,22.43
2023-02-28T07:55:14.599Z,22.43
2023-02-28T07:56:14.561Z,22.44
2023-02-28T07:57:14.522Z,22.45
2023-02-28T07:58:14.472Z,22.46
2023-02-28T07:59:14.457Z,22.47
2023-02-28T08:00:14.436Z,22.48
2023-02-28T08:01:14.366Z,22.48
2023-02-28T08:02:14.403Z,22.49
2023-02-28T08:03:14.299Z,22.50
2023-02-28T08:04:14.300Z,22.51
2023-02-28T08:05:14.349Z,22.53
2023-02-28T08:06:14.221Z,22.53
2023-02-28T08:07:14.209Z,22.54
2023-02-28T08:08:14.258Z,22.55
2023-02-28T08:09:14.180Z,22.55
2023-02-28T08:10:14.099Z,22.57
2023-02-28T08:11:14.106Z,22.58
2023-02-28T08:12:14.037Z,22.58
2023-02-28T08:13:13.996Z,22.60
2023-02-28T08:14:13.969Z,22.61
2023-02-28T08:15:13.988Z,22.61
2023-02-28T08:16:13.984Z,22.62
2023-02-28T08:17:13.917Z,22.63
2023-02-28T08:18:13.904Z,22.64
2023-02-28T08:19:13.843Z,22.64
2023-02-28T08:20:13.816Z,22.65
2023-02-28T08:21:13.775Z,22.66
2023-02-28T08:22:13.738Z,22.67
2023-02-28T08:23:13.743Z,22.67
2023-02-28T08:24:13.702Z,22.68
2023-02-28T08:25:13.695Z,22.70
2023-02-28T09:54:10.886Z,22.71
2023-02-28T09:55:10.863Z,22.68
2023-02-28T09:56:10.844Z,22.62
2023-02-28T09:57:10.813Z,22.57
2023-02-28T09:58:10.774Z,22.48
2023-02-28T09:59:10.789Z,22.42
2023-02-28T10:00:10.734Z,22.40
2023-02-28T10:01:10.743Z,22.43
2023-02-28T10:02:10.677Z,22.49
2023-02-28T10:03:10.654Z,22.52
2023-02-28T10:04:10.631Z,22.56
2023-02-28T10:05:10.602Z,22.59
2023-02-28T10:06:10.587Z,22.61
2023-02-28T10:07:10.557Z,22.65
2023-02-28T10:08:10.545Z,22.68
2023-02-28T10:09:10.497Z,22.70
2023-02-28T10:10:10.474Z,22.72
2023-02-28T10:11:10.461Z,22.74
2023-02-28T10:12:10.404Z,22.76
2023-02-28T10:13:10.376Z,22.78
2023-02-28T10:14:10.338Z,22.78
2023-02-28T10:15:10.305Z,22.80
2023-02-28T10:16:10.337Z,22.83
2023-02-28T10:17:10.238Z,22.84
2023-02-28T10:18:11.125Z,22.85
2023-02-28T10:19:10.174Z,22.87
2023-02-28T10:20:10.134Z,22.87
2023-02-28T10:21:10.129Z,22.89
2023-02-28T10:22:10.064Z,22.90
2023-02-28T10:23:10.204Z,22.92
2023-02-28T10:24:10.008Z,22.93
2023-02-28T10:25:09.934Z,22.93
2023-02-28T10:26:09.909Z,22.94
2023-02-28T10:27:09.876Z,22.96
2023-02-28T10:28:09.875Z,22.97
2023-02-28T10:29:09.800Z,22.98
2023-02-28T10:30:09.761Z,22.99
2023-02-28T10:31:09.763Z,23.00
2023-02-28T10:32:09.706Z,23.01
2023-02-28T10:33:09.704Z,23.01
2023-02-28T10:34:09.622Z,23.02
2023-02-28T10:35:09.684Z,23.04
2023-02-28T10:36:09.585Z,23.04
2023-02-28T10:37:09.549Z,23.03
2023-02-28T10:38:09.510Z,22.98
2023-02-28T10:39:09.472Z,22.92
2023-02-28T10:40:09.446Z,22.81
2023-02-28T10:41:09.422Z,22.78
2023-02-28T10:42:09.434Z,22.76
2023-02-28T10:43:09.394Z,22.79
2023-02-28T10:44:09.343Z,22.80
2023-02-28T10:45:09.320Z,22.83
2023-02-28T10:46:09.338Z,22.84
2023-02-28T10:47:09.258Z,22.73
2023-02-28T10:48:09.223Z,22.68
2023-02-28T10:49:09.205Z,22.63
2023-02-28T10:50:09.162Z,22.57
2023-02-28T10:51:09.166Z,22.57
2023-02-28T10:52:09.126Z,22.56
2023-02-28T10:53:09.080Z,22.54
2023-02-28T10:54:09.065Z,22.45
2023-02-28T10:55:09.031Z,22.40
2023-02-28T10:56:09.003Z,22.36
2023-02-28T10:57:08.993Z,22.35
2023-02-28T10:58:08.959Z,22.28
2023-02-28T10:59:08.939Z,22.22
2023-02-28T11:00:08.899Z,22.15
2023-02-28T11:01:08.906Z,22.08
2023-02-28T11:02:08.935Z,22.05
2023-02-28T11:03:08.838Z,22.05
2023-02-28T11:04:08.801Z,22.01
2023-02-28T11:05:08.874Z,21.98
2023-02-28T11:06:08.759Z,21.96
2023-02-28T11:07:08.737Z,21.95
2023-02-28T11:08:08.702Z,21.96
2023-02-28T11:09:08.678Z,21.97
2023-02-28T11:10:08.654Z,21.97
2023-02-28T11:11:08.632Z,21.94
2023-02-28T11:12:08.607Z,21.98
2023-02-28T11:13:08.621Z,22.02
2023-02-28T11:14:08.576Z,22.06
2023-02-28T11:15:08.543Z,22.11
2023-02-28T11:16:08.566Z,22.16
2023-02-28T11:17:08.541Z,22.20
2023-02-28T11:18:08.478Z,22.25
2023-02-28T11:19:08.493Z,22.28
2023-02-28T11:20:08.470Z,22.31
2023-02-28T11:21:08.415Z,22.34
2023-02-28T11:22:08.378Z,22.37
2023-02-28T11:23:08.356Z,22.39
2023-02-28T11:24:08.322Z,22.42
2023-02-28T11:25:08.295Z,22.43
2023-02-28T11:26:08.280Z,22.45
2023-02-28T11:27:08.252Z,22.47
2023-02-28T11:28:08.226Z,22.48
2023-02-28T11:29:08.198Z,22.50
2023-02-28T11:30:08.171Z,22.51
2023-02-28T11:31:08.222Z,22.53
2023-02-28T11:32:08.220Z,22.54
2023-02-28T11:33:08.192Z,22.55
2023-02-28T11:34:08.092Z,22.56
2023-02-28T11:35:08.069Z,22.58
2023-02-28T11:36:08.094Z,22.60
2023-02-28T11:37:08.010Z,22.65
2023-02-28T11:38:07.986Z,22.72
2023-02-28T11:39:07.971Z,22.76
2023-02-28T11:40:07.937Z,22.79
2023-02-28T11:41:07.909Z,22.83
2023-02-28T11:42:07.886Z,22.85
2023-02-28T11:43:07.886Z,22.86
2023-02-28T11:44:07.835Z,22.87
2023-02-28T11:45:07.804Z,22.89
2023-02-28T11:46:07.819Z,22.89
2023-02-28T11:47:07.759Z,22.90
2023-02-28T11:48:07.727Z,22.90
2023-02-28T11:49:07.727Z,22.91
2023-02-28T11:50:07.676Z,22.92
2023-02-28T11:51:07.661Z,22.94
2023-02-28T11:52:07.613Z,22.95
2023-02-28T11:53:07.610Z,22.96
2023-02-28T11:54:07.569Z,22.96
2023-02-28T11:55:07.561Z,22.97
2023-02-28T11:56:07.531Z,22.98
2023-02-28T11:57:07.493Z,22.99
2023-02-28T11:58:07.456Z,22.99
2023-02-28T11:59:07.443Z,22.99
2023-02-28T12:00:07.414Z,22.99
2023-02-28T12:01:07.377Z,22.99
2023-02-28T12:02:07.376Z,22.99
2023-02-28T12:03:07.409Z,23.00
2023-02-28T12:04:07.306Z,23.00
2023-02-28T12:05:08.783Z,23.01
2023-02-28T12:06:07.252Z,23.01
2023-02-28T12:07:07.271Z,23.02
2023-02-28T12:08:07.204Z,23.01
2023-02-28T12:09:07.167Z,23.01
2023-02-28T12:10:07.136Z,23.02
2023-02-28T12:11:07.116Z,23.02
2023-02-28T12:12:07.090Z,23.03
2023-02-28T12:13:07.061Z,23.04
2023-02-28T12:14:07.026Z,23.04
2023-02-28T12:15:07.012Z,23.05
2023-02-28T12:16:07.040Z,23.05
2023-02-28T12:17:06.966Z,23.06
2023-02-28T12:18:06.966Z,23.07
2023-02-28T12:19:06.914Z,23.08
2023-02-28T12:20:06.894Z,23.08
2023-02-28T12:21:06.889Z,23.08
2023-02-28T12:22:06.839Z,23.08
2023-02-28T12:23:06.808Z,23.08
2023-02-28T12:24:06.776Z,23.08
2023-02-28T12:25:06.754Z,23.07
2023-02-28T12:26:06.789Z,23.07
2023-02-28T12:27:06.689Z,23.09
2023-02-28T12:28:06.657Z,23.09
2023-02-28T12:29:06.623Z,23.09
2023-02-28T12:30:06.597Z,23.09
2023-02-28T12:31:06.562Z,23.09
2023-02-28T12:32:06.584Z,23.12
2023-02-28T12:33:06.510Z,23.12
2023-02-28T12:34:06.462Z,23.13
2023-02-28T12:35:06.469Z,23.15
2023-02-28T12:36:06.395Z,23.15
2023-02-28T12:37:06.365Z,23.16
2023-02-28T12:38:06.344Z,23.18
2023-02-28T12:39:06.310Z,23.18
2023-02-28T12:40:06.281Z,23.18
2023-02-28T12:41:06.270Z,23.18
2023-02-28T12:42:06.232Z,23.19
2023-02-28T12:43:06.205Z,23.20
2023-02-28T12:44:06.171Z,23.20
2023-02-28T12:45:06.139Z,23.20
2023-02-28T12:46:06.187Z,23.20
2023-02-28T12:47:06.083Z,23.21
2023-02-28T12:48:06.075Z,23.22
2023-02-28T12:49:06.032Z,23.23
2023-02-28T12:50:06.020Z,23.22
2023-02-28T12:51:05.973Z,23.24
2023-02-28T12:52:05.923Z,23.25
2023-02-28T12:53:05.946Z,23.25
2023-02-28T12:54:05.871Z,23.25
2023-02-28T12:55:05.847Z,23.27
2023-02-28T12:56:05.830Z,23.27
2023-02-28T12:57:05.767Z,23.28
2023-02-28T12:58:05.724Z,23.27
2023-02-28T12:59:05.696Z,23.28
2023-02-28T13:00:05.683Z,23.28
2023-02-28T13:01:05.660Z,23.29
2023-02-28T13:02:05.628Z,23.29
2023-02-28T13:03:05.562Z,23.30
2023-02-28T13:04:05.534Z,23.31
2023-02-28T13:05:05.494Z,23.31
2023-02-28T13:06:05.484Z,23.31
2023-02-28T13:07:05.426Z,23.32
2023-02-28T13:08:05.390Z,23.33
2023-02-28T13:09:05.350Z,23.33
2023-02-28T13:10:05.325Z,23.34
2023-02-28T13:11:10.027Z,23.34
2023-02-28T13:12:06.253Z,23.35
2023-02-28T13:13:05.223Z,23.35
2023-02-28T13:14:05.216Z,23.36
2023-02-28T13:15:05.139Z,23.36
2023-02-28T13:16:05.135Z,23.35
2023-02-28T13:17:05.150Z,23.36
2023-02-28T13:18:05.062Z,23.36
2023-02-28T13:19:05.005Z,23.37
2023-02-28T13:20:05.016Z,23.37
2023-02-28T13:21:04.947Z,23.37
2023-02-28T13:22:04.906Z,23.37
2023-02-28T13:23:04.869Z,23.37
2023-02-28T13:24:04.829Z,23.38
2023-02-28T13:25:04.815Z,23.39
2023-02-28T13:26:04.782Z,23.40
2023-02-28T13:27:04.747Z,23.39
2023-02-28T13:28:04.709Z,23.41
2023-02-28T13:29:04.700Z,23.41
2023-02-28T13:30:04.646Z,23.41
2023-02-28T13:31:04.632Z,23.41
2023-02-28T13:32:04.608Z,23.41
2023-02-28T13:33:04.550Z,23.41
2023-02-28T13:34:04.516Z,23.42
2023-02-28T13:35:04.483Z,23.43
2023-02-28T13:36:04.493Z,23.43
2023-02-28T13:37:04.418Z,23.42
2023-02-28T13:38:04.392Z,23.43
2023-02-28T13:39:04.378Z,23.43
2023-02-28T13:40:04.331Z,23.44
2023-02-28T13:41:04.291Z,23.44
2023-02-28T13:42:04.259Z,23.44
2023-02-28T13:43:04.229Z,23.44
2023-02-28T13:44:04.191Z,23.44
2023-02-28T13:45:04.161Z,23.45
2023-02-28T13:46:04.168Z,23.46
2023-02-28T13:47:04.089Z,23.46
2023-02-28T13:48:04.066Z,23.45
2023-02-28T13:49:04.017Z,23.46
2023-02-28T13:50:04.003Z,23.45
2023-02-28T13:51:03.952Z,23.46
2023-02-28T13:52:03.926Z,23.46
2023-02-28T13:53:03.914Z,23.47
2023-02-28T13:54:03.873Z,23.46
2023-02-28T13:55:03.851Z,23.47
2023-02-28T13:56:03.803Z,23.46
2023-02-28T13:57:03.772Z,23.47
2023-02-28T13:58:03.740Z,23.47
2023-02-28T13:59:03.707Z,23.47
2023-02-28T14:00:03.675Z,23.47
2023-02-28T14:01:03.661Z,23.46
2023-02-28T14:02:03.614Z,23.46
2023-02-28T14:03:03.629Z,23.47
2023-02-28T14:04:03.544Z,23.47
2023-02-28T14:05:03.532Z,23.47
2023-02-28T14:06:03.455Z,23.48
2023-02-28T14:07:03.436Z,23.47
2023-02-28T14:08:03.414Z,23.47
2023-02-28T14:09:03.382Z,23.47
2023-02-28T14:10:03.363Z,23.47
2023-02-28T14:11:03.314Z,23.47
2023-02-28T14:12:03.289Z,23.47
2023-02-28T14:13:03.257Z,23.46
2023-02-28T14:14:03.235Z,23.47
2023-02-28T14:15:03.199Z,23.46
2023-02-28T14:16:03.200Z,23.46
2023-02-28T14:17:03.119Z,23.47
2023-02-28T14:18:03.086Z,23.47
2023-02-28T14:19:03.048Z,23.46
2023-02-28T14:20:03.042Z,23.46
2023-02-28T14:21:03.006Z,23.46
2023-02-28T14:22:02.957Z,23.45
2023-02-28T14:23:02.925Z,23.45
2023-02-28T14:24:02.898Z,23.45